sensor_id;sensor_type;location;lat;lon;timestamp;P1;durP1;ratioP1;P2;durP2;ratioP2
21848;SDS011;11089;49.852;19.700;2022-08-04T00:01:08;11.27;;;8.48;;
21848;SDS011;11089;49.852;19.700;2022-08-04T00:04:22;14.18;;;9.70;;
21848;SDS011;11089;49.852;19.700;2022-08-04T00:07:41;10.60;;;8.52;;
21848;SDS011;11089;49.852;19.700;2022-08-04T00:10:54;12.20;;;9.38;;
21848;SDS011;11089;49.852;19.700;2022-08-04T00:14:02;12.25;;;9.30;;
21848;SDS011;11089;49.852;19.700;2022-08-04T00:17:05;12.23;;;9.75;;
21848;SDS011;11089;49.852;19.700;2022-08-04T00:20:07;13.57;;;9.60;;
21848;SDS011;11089;49.852;19.700;2022-08-04T00:23:09;12.68;;;9.13;;
21848;SDS011;11089;49.852;19.700;2022-08-04T00:26:10;13.95;;;8.73;;
21848;SDS011;11089;49.852;19.700;2022-08-04T00:29:11;15.55;;;9.35;;
21848;SDS011;11089;49.852;19.700;2022-08-04T00:32:12;10.05;;;8.60;;
21848;SDS011;11089;49.852;19.700;2022-08-04T00:35:14;12.35;;;9.52;;
21848;SDS011;11089;49.852;19.700;2022-08-04T00:38:16;14.43;;;9.02;;
21848;SDS011;11089;49.852;19.700;2022-08-04T00:41:21;13.80;;;9.50;;
21848;SDS011;11089;49.852;19.700;2022-08-04T00:51:16;12.10;;;9.02;;
21848;SDS011;11089;49.852;19.700;2022-08-04T01:14:46;10.68;;;8.27;;
21848;SDS011;11089;49.852;19.700;2022-08-04T01:17:53;12.30;;;8.70;;
21848;SDS011;11089;49.852;19.700;2022-08-04T01:34:46;9.23;;;8.07;;
21848;SDS011;11089;49.852;19.700;2022-08-04T01:38:06;9.18;;;7.57;;
21848;SDS011;11089;49.852;19.700;2022-08-04T01:41:17;8.63;;;7.65;;
21848;SDS011;11089;49.852;19.700;2022-08-04T01:44:19;10.38;;;7.40;;
21848;SDS011;11089;49.852;19.700;2022-08-04T01:47:22;9.60;;;8.00;;
21848;SDS011;11089;49.852;19.700;2022-08-04T01:50:28;10.57;;;7.68;;
21848;SDS011;11089;49.852;19.700;2022-08-04T01:53:37;9.43;;;7.20;;
21848;SDS011;11089;49.852;19.700;2022-08-04T01:56:39;8.50;;;7.38;;
21848;SDS011;11089;49.852;19.700;2022-08-04T01:59:42;9.10;;;7.60;;
21848;SDS011;11089;49.852;19.700;2022-08-04T02:02:46;8.48;;;7.43;;
21848;SDS011;11089;49.852;19.700;2022-08-04T02:05:49;13.48;;;7.63;;
21848;SDS011;11089;49.852;19.700;2022-08-04T02:09:03;8.85;;;6.75;;
21848;SDS011;11089;49.852;19.700;2022-08-04T02:16:00;8.50;;;6.90;;
21848;SDS011;11089;49.852;19.700;2022-08-04T02:19:06;11.32;;;6.88;;
21848;SDS011;11089;49.852;19.700;2022-08-04T02:22:17;8.45;;;6.97;;
21848;SDS011;11089;49.852;19.700;2022-08-04T02:25:23;8.45;;;6.50;;
21848;SDS011;11089;49.852;19.700;2022-08-04T02:28:29;9.32;;;6.85;;
21848;SDS011;11089;49.852;19.700;2022-08-04T02:37:59;12.02;;;7.22;;
21848;SDS011;11089;49.852;19.700;2022-08-04T02:41:30;8.95;;;7.00;;
21848;SDS011;11089;49.852;19.700;2022-08-04T02:44:32;12.77;;;8.70;;
21848;SDS011;11089;49.852;19.700;2022-08-04T02:47:36;13.57;;;8.40;;
21848;SDS011;11089;49.852;19.700;2022-08-04T02:50:38;14.02;;;8.15;;
21848;SDS011;11089;49.852;19.700;2022-08-04T02:53:42;11.02;;;7.07;;
21848;SDS011;11089;49.852;19.700;2022-08-04T02:56:45;10.45;;;7.97;;
21848;SDS011;11089;49.852;19.700;2022-08-04T03:06:22;9.23;;;6.63;;
21848;SDS011;11089;49.852;19.700;2022-08-04T03:56:38;9.15;;;6.72;;
21848;SDS011;11089;49.852;19.700;2022-08-04T04:16:40;10.25;;;6.22;;
21848;SDS011;11089;49.852;19.700;2022-08-04T04:32:45;7.70;;;6.13;;
21848;SDS011;11089;49.852;19.700;2022-08-04T04:42:42;8.98;;;6.57;;
21848;SDS011;11089;49.852;19.700;2022-08-04T04:56:21;10.45;;;7.57;;
21848;SDS011;11089;49.852;19.700;2022-08-04T04:59:37;7.57;;;6.78;;
21848;SDS011;11089;49.852;19.700;2022-08-04T05:12:41;7.80;;;6.50;;
21848;SDS011;11089;49.852;19.700;2022-08-04T05:15:59;10.32;;;7.03;;
21848;SDS011;11089;49.852;19.700;2022-08-04T05:22:31;8.55;;;7.40;;
21848;SDS011;11089;49.852;19.700;2022-08-04T05:25:51;8.65;;;6.97;;
21848;SDS011;11089;49.852;19.700;2022-08-04T05:28:56;8.20;;;6.95;;
21848;SDS011;11089;49.852;19.700;2022-08-04T05:32:04;8.68;;;6.28;;
21848;SDS011;11089;49.852;19.700;2022-08-04T05:35:10;8.38;;;6.95;;
21848;SDS011;11089;49.852;19.700;2022-08-04T05:38:16;7.65;;;6.65;;
21848;SDS011;11089;49.852;19.700;2022-08-04T05:41:20;8.85;;;7.50;;
21848;SDS011;11089;49.852;19.700;2022-08-04T05:44:22;8.32;;;6.65;;
21848;SDS011;11089;49.852;19.700;2022-08-04T05:47:25;8.25;;;6.35;;
21848;SDS011;11089;49.852;19.700;2022-08-04T05:50:27;8.38;;;5.93;;
21848;SDS011;11089;49.852;19.700;2022-08-04T05:53:30;6.47;;;5.88;;
21848;SDS011;11089;49.852;19.700;2022-08-04T05:56:31;6.90;;;6.20;;
21848;SDS011;11089;49.852;19.700;2022-08-04T05:59:36;11.90;;;7.63;;
21848;SDS011;11089;49.852;19.700;2022-08-04T06:02:38;8.60;;;6.93;;
21848;SDS011;11089;49.852;19.700;2022-08-04T06:05:42;9.43;;;6.80;;
21848;SDS011;11089;49.852;19.700;2022-08-04T06:08:45;8.63;;;6.85;;
21848;SDS011;11089;49.852;19.700;2022-08-04T06:11:46;8.20;;;6.28;;
21848;SDS011;11089;49.852;19.700;2022-08-04T06:14:49;8.07;;;7.13;;
21848;SDS011;11089;49.852;19.700;2022-08-04T06:18:00;9.57;;;7.75;;
21848;SDS011;11089;49.852;19.700;2022-08-04T06:21:03;7.95;;;7.10;;
21848;SDS011;11089;49.852;19.700;2022-08-04T06:24:07;9.80;;;7.90;;
21848;SDS011;11089;49.852;19.700;2022-08-04T06:27:10;8.82;;;7.85;;
21848;SDS011;11089;49.852;19.700;2022-08-04T06:30:12;10.65;;;7.30;;
21848;SDS011;11089;49.852;19.700;2022-08-04T06:33:14;8.95;;;7.43;;
21848;SDS011;11089;49.852;19.700;2022-08-04T06:36:29;9.55;;;8.23;;
21848;SDS011;11089;49.852;19.700;2022-08-04T06:39:31;9.13;;;8.10;;
21848;SDS011;11089;49.852;19.700;2022-08-04T06:42:33;11.05;;;8.32;;
21848;SDS011;11089;49.852;19.700;2022-08-04T06:45:36;9.95;;;8.85;;
21848;SDS011;11089;49.852;19.700;2022-08-04T06:48:40;12.73;;;9.15;;
21848;SDS011;11089;49.852;19.700;2022-08-04T06:51:42;8.60;;;7.70;;
21848;SDS011;11089;49.852;19.700;2022-08-04T06:54:48;8.80;;;7.85;;
21848;SDS011;11089;49.852;19.700;2022-08-04T06:57:51;12.93;;;8.25;;
21848;SDS011;11089;49.852;19.700;2022-08-04T07:00:54;11.20;;;8.73;;
21848;SDS011;11089;49.852;19.700;2022-08-04T07:04:00;12.30;;;8.85;;
21848;SDS011;11089;49.852;19.700;2022-08-04T07:07:02;8.77;;;7.60;;
21848;SDS011;11089;49.852;19.700;2022-08-04T07:10:03;9.18;;;6.97;;
21848;SDS011;11089;49.852;19.700;2022-08-04T07:13:06;9.57;;;7.95;;
21848;SDS011;11089;49.852;19.700;2022-08-04T07:16:08;8.02;;;6.60;;
21848;SDS011;11089;49.852;19.700;2022-08-04T07:19:12;8.63;;;6.60;;
21848;SDS011;11089;49.852;19.700;2022-08-04T07:22:13;7.60;;;6.65;;
21848;SDS011;11089;49.852;19.700;2022-08-04T07:25:15;7.57;;;6.20;;
21848;SDS011;11089;49.852;19.700;2022-08-04T07:28:17;7.85;;;6.18;;
21848;SDS011;11089;49.852;19.700;2022-08-04T07:31:19;7.40;;;6.18;;
21848;SDS011;11089;49.852;19.700;2022-08-04T07:34:23;5.78;;;5.25;;
21848;SDS011;11089;49.852;19.700;2022-08-04T07:37:25;5.50;;;5.00;;
21848;SDS011;11089;49.852;19.700;2022-08-04T07:40:26;7.75;;;5.70;;
21848;SDS011;11089;49.852;19.700;2022-08-04T07:43:29;7.88;;;5.40;;
21848;SDS011;11089;49.852;19.700;2022-08-04T07:46:31;6.07;;;5.32;;
21848;SDS011;11089;49.852;19.700;2022-08-04T07:49:32;6.15;;;5.18;;
21848;SDS011;11089;49.852;19.700;2022-08-04T07:52:33;5.95;;;5.32;;
21848;SDS011;11089;49.852;19.700;2022-08-04T07:55:36;6.05;;;5.20;;
21848;SDS011;11089;49.852;19.700;2022-08-04T07:58:37;5.47;;;4.97;;
21848;SDS011;11089;49.852;19.700;2022-08-04T08:01:38;15.32;;;5.65;;
21848;SDS011;11089;49.852;19.700;2022-08-04T08:04:40;6.30;;;5.22;;
21848;SDS011;11089;49.852;19.700;2022-08-04T08:07:46;7.07;;;5.10;;
21848;SDS011;11089;49.852;19.700;2022-08-04T08:10:48;5.95;;;5.32;;
21848;SDS011;11089;49.852;19.700;2022-08-04T08:13:50;5.80;;;4.68;;
21848;SDS011;11089;49.852;19.700;2022-08-04T08:16:51;4.80;;;4.30;;
21848;SDS011;11089;49.852;19.700;2022-08-04T08:19:52;5.13;;;4.53;;
21848;SDS011;11089;49.852;19.700;2022-08-04T08:22:53;5.22;;;4.20;;
21848;SDS011;11089;49.852;19.700;2022-08-04T08:25:55;10.55;;;4.70;;
21848;SDS011;11089;49.852;19.700;2022-08-04T08:28:56;4.95;;;4.45;;
21848;SDS011;11089;49.852;19.700;2022-08-04T08:31:57;4.85;;;4.32;;
21848;SDS011;11089;49.852;19.700;2022-08-04T08:35:00;5.75;;;5.22;;
21848;SDS011;11089;49.852;19.700;2022-08-04T08:38:01;4.85;;;4.38;;
21848;SDS011;11089;49.852;19.700;2022-08-04T08:51:25;6.65;;;4.55;;
21848;SDS011;11089;49.852;19.700;2022-08-04T09:15:08;5.57;;;4.38;;
21848;SDS011;11089;49.852;19.700;2022-08-04T09:18:26;4.70;;;4.30;;
21848;SDS011;11089;49.852;19.700;2022-08-04T09:28:26;4.50;;;4.10;;
21848;SDS011;11089;49.852;19.700;2022-08-04T09:48:41;5.97;;;3.83;;
21848;SDS011;11089;49.852;19.700;2022-08-04T09:52:00;3.80;;;3.38;;
21848;SDS011;11089;49.852;19.700;2022-08-04T10:02:02;6.30;;;3.70;;
21848;SDS011;11089;49.852;19.700;2022-08-04T10:05:08;6.20;;;3.60;;
21848;SDS011;11089;49.852;19.700;2022-08-04T10:15:05;3.83;;;3.40;;
21848;SDS011;11089;49.852;19.700;2022-08-04T10:18:14;3.75;;;2.80;;
21848;SDS011;11089;49.852;19.700;2022-08-04T10:28:02;3.58;;;3.28;;
21848;SDS011;11089;49.852;19.700;2022-08-04T10:31:08;4.05;;;3.40;;
21848;SDS011;11089;49.852;19.700;2022-08-04T10:34:19;4.82;;;3.10;;
21848;SDS011;11089;49.852;19.700;2022-08-04T10:37:31;5.22;;;3.35;;
21848;SDS011;11089;49.852;19.700;2022-08-04T10:41:01;5.00;;;3.20;;
21848;SDS011;11089;49.852;19.700;2022-08-04T10:47:23;4.35;;;3.25;;
21848;SDS011;11089;49.852;19.700;2022-08-04T10:50:31;3.72;;;2.90;;
21848;SDS011;11089;49.852;19.700;2022-08-04T10:53:37;3.30;;;3.00;;
21848;SDS011;11089;49.852;19.700;2022-08-04T10:56:43;3.20;;;3.00;;
21848;SDS011;11089;49.852;19.700;2022-08-04T11:03:29;3.35;;;3.05;;
21848;SDS011;11089;49.852;19.700;2022-08-04T11:06:40;3.30;;;3.00;;
21848;SDS011;11089;49.852;19.700;2022-08-04T11:09:42;4.03;;;3.60;;
21848;SDS011;11089;49.852;19.700;2022-08-04T11:12:44;4.05;;;3.40;;
21848;SDS011;11089;49.852;19.700;2022-08-04T11:15:50;5.60;;;3.33;;
21848;SDS011;11089;49.852;19.700;2022-08-04T11:19:03;3.47;;;3.03;;
21848;SDS011;11089;49.852;19.700;2022-08-04T11:25:24;4.93;;;2.83;;
21848;SDS011;11089;49.852;19.700;2022-08-04T11:28:34;3.28;;;3.00;;
21848;SDS011;11089;49.852;19.700;2022-08-04T11:31:40;3.30;;;3.00;;
21848;SDS011;11089;49.852;19.700;2022-08-04T11:34:46;3.53;;;3.10;;
21848;SDS011;11089;49.852;19.700;2022-08-04T11:37:49;3.95;;;3.28;;
21848;SDS011;11089;49.852;19.700;2022-08-04T11:41:11;3.28;;;3.05;;
21848;SDS011;11089;49.852;19.700;2022-08-04T11:47:55;6.97;;;3.03;;
21848;SDS011;11089;49.852;19.700;2022-08-04T11:51:00;3.40;;;3.10;;
21848;SDS011;11089;49.852;19.700;2022-08-04T11:54:04;4.03;;;3.40;;
21848;SDS011;11089;49.852;19.700;2022-08-04T11:57:06;4.05;;;3.08;;
21848;SDS011;11089;49.852;19.700;2022-08-04T12:00:09;3.55;;;2.75;;
21848;SDS011;11089;49.852;19.700;2022-08-04T12:03:23;3.60;;;3.30;;
21848;SDS011;11089;49.852;19.700;2022-08-04T12:10:00;4.35;;;3.10;;
21848;SDS011;11089;49.852;19.700;2022-08-04T12:13:12;4.13;;;3.33;;
21848;SDS011;11089;49.852;19.700;2022-08-04T12:16:17;4.15;;;3.60;;
21848;SDS011;11089;49.852;19.700;2022-08-04T12:22:45;10.05;;;3.75;;
21848;SDS011;11089;49.852;19.700;2022-08-04T12:25:51;5.45;;;3.50;;
21848;SDS011;11089;49.852;19.700;2022-08-04T12:28:58;3.80;;;3.50;;
21848;SDS011;11089;49.852;19.700;2022-08-04T12:32:06;3.88;;;3.50;;
21848;SDS011;11089;49.852;19.700;2022-08-04T12:35:22;3.83;;;3.47;;
21848;SDS011;11089;49.852;19.700;2022-08-04T12:38:31;6.03;;;3.17;;
21848;SDS011;11089;49.852;19.700;2022-08-04T12:41:33;4.75;;;3.50;;
21848;SDS011;11089;49.852;19.700;2022-08-04T12:44:39;4.65;;;3.67;;
21848;SDS011;11089;49.852;19.700;2022-08-04T12:47:42;3.80;;;3.30;;
21848;SDS011;11089;49.852;19.700;2022-08-04T12:50:49;3.85;;;3.20;;
21848;SDS011;11089;49.852;19.700;2022-08-04T12:53:54;3.55;;;3.25;;
21848;SDS011;11089;49.852;19.700;2022-08-04T12:56:58;3.95;;;3.60;;
21848;SDS011;11089;49.852;19.700;2022-08-04T13:00:01;4.07;;;3.65;;
21848;SDS011;11089;49.852;19.700;2022-08-04T13:03:04;3.50;;;3.20;;
21848;SDS011;11089;49.852;19.700;2022-08-04T13:06:09;3.58;;;3.28;;
21848;SDS011;11089;49.852;19.700;2022-08-04T13:09:17;3.85;;;3.53;;
21848;SDS011;11089;49.852;19.700;2022-08-04T13:12:20;5.97;;;3.38;;
21848;SDS011;11089;49.852;19.700;2022-08-04T13:15:25;4.03;;;3.63;;
21848;SDS011;11089;49.852;19.700;2022-08-04T13:18:28;4.40;;;3.83;;
21848;SDS011;11089;49.852;19.700;2022-08-04T13:21:31;6.07;;;3.95;;
21848;SDS011;11089;49.852;19.700;2022-08-04T13:24:33;6.07;;;3.88;;
21848;SDS011;11089;49.852;19.700;2022-08-04T13:27:37;3.80;;;3.50;;
21848;SDS011;11089;49.852;19.700;2022-08-04T13:30:39;4.65;;;3.33;;
21848;SDS011;11089;49.852;19.700;2022-08-04T13:33:43;5.43;;;3.63;;
21848;SDS011;11089;49.852;19.700;2022-08-04T13:36:50;4.25;;;3.53;;
21848;SDS011;11089;49.852;19.700;2022-08-04T13:39:55;4.38;;;3.70;;
21848;SDS011;11089;49.852;19.700;2022-08-04T13:42:57;5.07;;;3.67;;
21848;SDS011;11089;49.852;19.700;2022-08-04T13:46:03;6.93;;;3.92;;
21848;SDS011;11089;49.852;19.700;2022-08-04T13:49:07;4.10;;;3.70;;
21848;SDS011;11089;49.852;19.700;2022-08-04T13:52:11;4.65;;;4.05;;
21848;SDS011;11089;49.852;19.700;2022-08-04T13:58:38;5.65;;;4.07;;
21848;SDS011;11089;49.852;19.700;2022-08-04T14:01:45;4.50;;;3.72;;
21848;SDS011;11089;49.852;19.700;2022-08-04T14:05:00;4.07;;;3.75;;
21848;SDS011;11089;49.852;19.700;2022-08-04T14:08:14;4.38;;;3.65;;
21848;SDS011;11089;49.852;19.700;2022-08-04T14:11:41;3.95;;;3.35;;
21848;SDS011;11089;49.852;19.700;2022-08-04T14:14:45;4.78;;;3.67;;
21848;SDS011;11089;49.852;19.700;2022-08-04T14:17:48;5.60;;;3.90;;
21848;SDS011;11089;49.852;19.700;2022-08-04T14:24:09;4.70;;;3.90;;
21848;SDS011;11089;49.852;19.700;2022-08-04T14:27:10;3.85;;;3.53;;
21848;SDS011;11089;49.852;19.700;2022-08-04T14:33:35;5.75;;;4.00;;
21848;SDS011;11089;49.852;19.700;2022-08-04T14:36:40;4.68;;;3.83;;
21848;SDS011;11089;49.852;19.700;2022-08-04T14:39:44;4.60;;;3.90;;
21848;SDS011;11089;49.852;19.700;2022-08-04T14:42:46;4.32;;;3.88;;
21848;SDS011;11089;49.852;19.700;2022-08-04T14:45:48;3.33;;;3.08;;
21848;SDS011;11089;49.852;19.700;2022-08-04T14:52:01;3.83;;;3.35;;
21848;SDS011;11089;49.852;19.700;2022-08-04T14:58:22;4.10;;;3.72;;
21848;SDS011;11089;49.852;19.700;2022-08-04T15:01:24;4.63;;;3.53;;
21848;SDS011;11089;49.852;19.700;2022-08-04T15:04:25;6.55;;;3.97;;
21848;SDS011;11089;49.852;19.700;2022-08-04T15:07:26;4.45;;;3.88;;
21848;SDS011;11089;49.852;19.700;2022-08-04T15:10:28;4.15;;;3.85;;
21848;SDS011;11089;49.852;19.700;2022-08-04T15:13:29;5.65;;;4.25;;
21848;SDS011;11089;49.852;19.700;2022-08-04T15:16:32;3.92;;;3.63;;
21848;SDS011;11089;49.852;19.700;2022-08-04T15:19:33;5.85;;;4.03;;
21848;SDS011;11089;49.852;19.700;2022-08-04T15:22:34;6.95;;;3.72;;
21848;SDS011;11089;49.852;19.700;2022-08-04T15:25:42;5.43;;;4.07;;
21848;SDS011;11089;49.852;19.700;2022-08-04T15:28:47;4.38;;;3.78;;
21848;SDS011;11089;49.852;19.700;2022-08-04T15:31:52;3.85;;;3.55;;
21848;SDS011;11089;49.852;19.700;2022-08-04T15:34:59;6.00;;;3.90;;
21848;SDS011;11089;49.852;19.700;2022-08-04T15:38:05;4.28;;;3.78;;
21848;SDS011;11089;49.852;19.700;2022-08-04T15:41:13;3.95;;;3.58;;
21848;SDS011;11089;49.852;19.700;2022-08-04T15:44:29;4.60;;;4.03;;
21848;SDS011;11089;49.852;19.700;2022-08-04T15:51:00;5.95;;;4.07;;
21848;SDS011;11089;49.852;19.700;2022-08-04T15:57:17;5.18;;;4.47;;
21848;SDS011;11089;49.852;19.700;2022-08-04T16:01:14;4.18;;;3.80;;
21848;SDS011;11089;49.852;19.700;2022-08-04T16:04:20;4.78;;;4.10;;
21848;SDS011;11089;49.852;19.700;2022-08-04T16:07:22;4.40;;;4.00;;
21848;SDS011;11089;49.852;19.700;2022-08-04T16:10:53;5.85;;;4.28;;
21848;SDS011;11089;49.852;19.700;2022-08-04T16:17:12;5.40;;;3.90;;
21848;SDS011;11089;49.852;19.700;2022-08-04T16:20:14;6.32;;;4.25;;
21848;SDS011;11089;49.852;19.700;2022-08-04T16:29:38;6.40;;;4.25;;
21848;SDS011;11089;49.852;19.700;2022-08-04T16:32:41;5.30;;;3.88;;
21848;SDS011;11089;49.852;19.700;2022-08-04T16:35:44;6.25;;;3.80;;
21848;SDS011;11089;49.852;19.700;2022-08-04T16:39:18;4.90;;;3.83;;
21848;SDS011;11089;49.852;19.700;2022-08-04T16:52:05;5.03;;;4.00;;
21848;SDS011;11089;49.852;19.700;2022-08-04T16:55:07;8.00;;;4.05;;
21848;SDS011;11089;49.852;19.700;2022-08-04T16:58:08;6.57;;;4.07;;
21848;SDS011;11089;49.852;19.700;2022-08-04T17:01:12;5.22;;;3.78;;
21848;SDS011;11089;49.852;19.700;2022-08-04T17:04:26;6.57;;;4.18;;
21848;SDS011;11089;49.852;19.700;2022-08-04T17:07:47;6.95;;;4.05;;
21848;SDS011;11089;49.852;19.700;2022-08-04T17:10:49;6.60;;;4.32;;
21848;SDS011;11089;49.852;19.700;2022-08-04T17:13:50;5.85;;;4.30;;
21848;SDS011;11089;49.852;19.700;2022-08-04T17:16:52;23.17;;;4.65;;
21848;SDS011;11089;49.852;19.700;2022-08-04T17:19:56;8.95;;;3.78;;
21848;SDS011;11089;49.852;19.700;2022-08-04T17:23:03;7.38;;;4.30;;
21848;SDS011;11089;49.852;19.700;2022-08-04T17:26:35;4.60;;;4.03;;
21848;SDS011;11089;49.852;19.700;2022-08-04T17:29:37;6.65;;;4.13;;
21848;SDS011;11089;49.852;19.700;2022-08-04T17:32:38;10.40;;;4.63;;
21848;SDS011;11089;49.852;19.700;2022-08-04T17:35:45;6.13;;;3.83;;
21848;SDS011;11089;49.852;19.700;2022-08-04T17:38:47;5.50;;;4.05;;
21848;SDS011;11089;49.852;19.700;2022-08-04T17:41:54;4.25;;;3.85;;
21848;SDS011;11089;49.852;19.700;2022-08-04T17:45:05;12.15;;;4.38;;
21848;SDS011;11089;49.852;19.700;2022-08-04T17:48:19;9.23;;;3.92;;
21848;SDS011;11089;49.852;19.700;2022-08-04T17:51:22;6.47;;;3.72;;
21848;SDS011;11089;49.852;19.700;2022-08-04T17:54:41;8.55;;;4.53;;
21848;SDS011;11089;49.852;19.700;2022-08-04T17:57:42;5.90;;;4.40;;
21848;SDS011;11089;49.852;19.700;2022-08-04T18:00:43;6.18;;;4.18;;
21848;SDS011;11089;49.852;19.700;2022-08-04T18:03:44;7.07;;;4.40;;
21848;SDS011;11089;49.852;19.700;2022-08-04T18:06:53;7.22;;;4.28;;
21848;SDS011;11089;49.852;19.700;2022-08-04T18:09:58;5.55;;;4.32;;
21848;SDS011;11089;49.852;19.700;2022-08-04T18:13:09;7.28;;;4.75;;
21848;SDS011;11089;49.852;19.700;2022-08-04T18:16:10;6.25;;;4.53;;
21848;SDS011;11089;49.852;19.700;2022-08-04T18:19:12;5.07;;;4.57;;
21848;SDS011;11089;49.852;19.700;2022-08-04T18:22:14;5.80;;;4.68;;
21848;SDS011;11089;49.852;19.700;2022-08-04T18:25:17;5.00;;;4.47;;
21848;SDS011;11089;49.852;19.700;2022-08-04T18:28:20;6.75;;;4.88;;
21848;SDS011;11089;49.852;19.700;2022-08-04T18:31:21;10.43;;;5.18;;
21848;SDS011;11089;49.852;19.700;2022-08-04T18:34:22;6.07;;;4.80;;
21848;SDS011;11089;49.852;19.700;2022-08-04T18:37:23;8.48;;;5.30;;
21848;SDS011;11089;49.852;19.700;2022-08-04T18:40:24;6.95;;;5.65;;
21848;SDS011;11089;49.852;19.700;2022-08-04T18:43:25;8.32;;;5.57;;
21848;SDS011;11089;49.852;19.700;2022-08-04T18:46:26;7.80;;;5.00;;
21848;SDS011;11089;49.852;19.700;2022-08-04T18:49:27;6.80;;;5.30;;
21848;SDS011;11089;49.852;19.700;2022-08-04T18:52:29;6.95;;;4.88;;
21848;SDS011;11089;49.852;19.700;2022-08-04T18:55:30;10.95;;;5.22;;
21848;SDS011;11089;49.852;19.700;2022-08-04T18:58:31;6.70;;;5.43;;
21848;SDS011;11089;49.852;19.700;2022-08-04T19:01:32;8.35;;;5.15;;
21848;SDS011;11089;49.852;19.700;2022-08-04T19:04:34;7.47;;;5.30;;
21848;SDS011;11089;49.852;19.700;2022-08-04T19:07:34;6.57;;;4.88;;
21848;SDS011;11089;49.852;19.700;2022-08-04T19:10:35;6.90;;;5.43;;
21848;SDS011;11089;49.852;19.700;2022-08-04T19:13:36;5.90;;;4.82;;
21848;SDS011;11089;49.852;19.700;2022-08-04T19:16:37;7.75;;;4.93;;
21848;SDS011;11089;49.852;19.700;2022-08-04T19:19:38;6.55;;;5.05;;
21848;SDS011;11089;49.852;19.700;2022-08-04T19:22:39;6.80;;;5.55;;
21848;SDS011;11089;49.852;19.700;2022-08-04T19:25:40;10.50;;;5.20;;
21848;SDS011;11089;49.852;19.700;2022-08-04T19:28:42;8.52;;;5.40;;
21848;SDS011;11089;49.852;19.700;2022-08-04T19:31:43;5.40;;;4.78;;
21848;SDS011;11089;49.852;19.700;2022-08-04T19:34:44;7.43;;;4.90;;
21848;SDS011;11089;49.852;19.700;2022-08-04T19:37:45;5.80;;;4.47;;
21848;SDS011;11089;49.852;19.700;2022-08-04T19:40:46;8.60;;;4.72;;
21848;SDS011;11089;49.852;19.700;2022-08-04T19:43:47;6.93;;;4.72;;
21848;SDS011;11089;49.852;19.700;2022-08-04T19:46:48;7.38;;;5.18;;
21848;SDS011;11089;49.852;19.700;2022-08-04T19:49:49;8.23;;;5.22;;
21848;SDS011;11089;49.852;19.700;2022-08-04T19:52:51;11.20;;;7.38;;
21848;SDS011;11089;49.852;19.700;2022-08-04T19:55:52;12.20;;;7.90;;
21848;SDS011;11089;49.852;19.700;2022-08-04T19:58:53;16.92;;;9.63;;
21848;SDS011;11089;49.852;19.700;2022-08-04T20:01:54;13.30;;;9.80;;
21848;SDS011;11089;49.852;19.700;2022-08-04T20:04:55;17.02;;;9.77;;
21848;SDS011;11089;49.852;19.700;2022-08-04T20:07:56;14.85;;;8.85;;
21848;SDS011;11089;49.852;19.700;2022-08-04T20:10:57;15.05;;;9.70;;
21848;SDS011;11089;49.852;19.700;2022-08-04T20:13:59;16.80;;;8.68;;
21848;SDS011;11089;49.852;19.700;2022-08-04T20:17:01;14.45;;;9.70;;
21848;SDS011;11089;49.852;19.700;2022-08-04T20:20:03;12.18;;;7.82;;
21848;SDS011;11089;49.852;19.700;2022-08-04T20:23:04;10.55;;;7.20;;
21848;SDS011;11089;49.852;19.700;2022-08-04T20:26:05;11.70;;;7.50;;
21848;SDS011;11089;49.852;19.700;2022-08-04T20:29:07;10.48;;;6.13;;
21848;SDS011;11089;49.852;19.700;2022-08-04T20:32:08;7.95;;;6.40;;
21848;SDS011;11089;49.852;19.700;2022-08-04T20:35:09;10.48;;;6.10;;
21848;SDS011;11089;49.852;19.700;2022-08-04T20:38:11;9.85;;;6.90;;
21848;SDS011;11089;49.852;19.700;2022-08-04T20:41:12;8.50;;;6.15;;
21848;SDS011;11089;49.852;19.700;2022-08-04T20:44:14;10.77;;;6.15;;
21848;SDS011;11089;49.852;19.700;2022-08-04T20:47:15;6.82;;;5.13;;
21848;SDS011;11089;49.852;19.700;2022-08-04T20:50:16;10.00;;;5.63;;
21848;SDS011;11089;49.852;19.700;2022-08-04T20:53:17;8.52;;;5.32;;
21848;SDS011;11089;49.852;19.700;2022-08-04T20:56:18;7.18;;;5.50;;
21848;SDS011;11089;49.852;19.700;2022-08-04T20:59:19;6.38;;;5.30;;
21848;SDS011;11089;49.852;19.700;2022-08-04T21:02:20;8.07;;;5.28;;
21848;SDS011;11089;49.852;19.700;2022-08-04T21:05:21;5.97;;;4.53;;
21848;SDS011;11089;49.852;19.700;2022-08-04T21:08:22;7.63;;;4.68;;
21848;SDS011;11089;49.852;19.700;2022-08-04T21:11:23;6.07;;;4.93;;
21848;SDS011;11089;49.852;19.700;2022-08-04T21:14:24;9.23;;;5.80;;
21848;SDS011;11089;49.852;19.700;2022-08-04T21:17:27;11.32;;;5.85;;
21848;SDS011;11089;49.852;19.700;2022-08-04T21:20:28;6.93;;;5.80;;
21848;SDS011;11089;49.852;19.700;2022-08-04T21:23:29;6.10;;;5.32;;
21848;SDS011;11089;49.852;19.700;2022-08-04T21:26:30;8.55;;;5.38;;
21848;SDS011;11089;49.852;19.700;2022-08-04T21:29:31;11.15;;;5.40;;
21848;SDS011;11089;49.852;19.700;2022-08-04T21:32:33;7.15;;;5.85;;
21848;SDS011;11089;49.852;19.700;2022-08-04T21:35:34;7.53;;;5.53;;
21848;SDS011;11089;49.852;19.700;2022-08-04T21:38:35;6.35;;;5.50;;
21848;SDS011;11089;49.852;19.700;2022-08-04T21:41:36;6.70;;;5.47;;
21848;SDS011;11089;49.852;19.700;2022-08-04T21:44:37;8.77;;;5.75;;
21848;SDS011;11089;49.852;19.700;2022-08-04T21:47:38;9.10;;;5.63;;
21848;SDS011;11089;49.852;19.700;2022-08-04T21:50:39;9.30;;;5.22;;
21848;SDS011;11089;49.852;19.700;2022-08-04T21:53:40;8.75;;;5.60;;
21848;SDS011;11089;49.852;19.700;2022-08-04T21:56:41;11.27;;;4.97;;
21848;SDS011;11089;49.852;19.700;2022-08-04T21:59:42;8.00;;;4.90;;
21848;SDS011;11089;49.852;19.700;2022-08-04T22:02:43;6.65;;;5.43;;
21848;SDS011;11089;49.852;19.700;2022-08-04T22:05:44;7.60;;;4.90;;
21848;SDS011;11089;49.852;19.700;2022-08-04T22:08:45;10.18;;;5.55;;
21848;SDS011;11089;49.852;19.700;2022-08-04T22:11:46;8.10;;;6.25;;
21848;SDS011;11089;49.852;19.700;2022-08-04T22:14:47;11.00;;;6.55;;
21848;SDS011;11089;49.852;19.700;2022-08-04T22:17:48;8.73;;;5.80;;
21848;SDS011;11089;49.852;19.700;2022-08-04T22:20:49;8.38;;;5.53;;
21848;SDS011;11089;49.852;19.700;2022-08-04T22:23:50;7.40;;;5.53;;
21848;SDS011;11089;49.852;19.700;2022-08-04T22:26:52;9.40;;;5.60;;
21848;SDS011;11089;49.852;19.700;2022-08-04T22:29:52;7.45;;;5.10;;
21848;SDS011;11089;49.852;19.700;2022-08-04T22:32:53;5.97;;;4.55;;
21848;SDS011;11089;49.852;19.700;2022-08-04T22:35:55;5.57;;;4.70;;
21848;SDS011;11089;49.852;19.700;2022-08-04T22:38:55;7.55;;;5.00;;
21848;SDS011;11089;49.852;19.700;2022-08-04T22:41:56;5.97;;;4.65;;
21848;SDS011;11089;49.852;19.700;2022-08-04T22:44:57;5.47;;;4.68;;
21848;SDS011;11089;49.852;19.700;2022-08-04T22:47:58;5.25;;;4.45;;
21848;SDS011;11089;49.852;19.700;2022-08-04T22:50:59;8.02;;;5.00;;
21848;SDS011;11089;49.852;19.700;2022-08-04T22:54:01;5.68;;;5.07;;
21848;SDS011;11089;49.852;19.700;2022-08-04T22:57:01;5.63;;;5.05;;
21848;SDS011;11089;49.852;19.700;2022-08-04T23:00:03;6.43;;;4.88;;
21848;SDS011;11089;49.852;19.700;2022-08-04T23:03:05;7.93;;;4.75;;
21848;SDS011;11089;49.852;19.700;2022-08-04T23:06:07;6.63;;;4.93;;
21848;SDS011;11089;49.852;19.700;2022-08-04T23:09:09;5.60;;;4.60;;
21848;SDS011;11089;49.852;19.700;2022-08-04T23:12:10;6.82;;;4.25;;
21848;SDS011;11089;49.852;19.700;2022-08-04T23:15:11;5.70;;;4.55;;